createdAt,value
2017-01-07T00:01:02.416Z,1039.1
2017-01-07T00:02:05.413Z,1039
2017-01-07T00:03:08.392Z,1039.1
2017-01-07T00:04:11.367Z,1039.1
2017-01-07T00:05:14.343Z,1039.1
2017-01-07T00:06:17.316Z,1039.1
2017-01-07T00:07:20.285Z,1039
2017-01-07T00:08:23.255Z,1039
2017-01-07T00:09:26.224Z,1038.9
2017-01-07T00:10:29.696Z,1038.9
2017-01-07T00:11:32.669Z,1038.9
2017-01-07T00:13:38.550Z,1038.9
2017-01-07T00:14:41.520Z,1038.8
2017-01-07T00:15:44.496Z,1038.8
2017-01-07T00:16:47.470Z,1038.8
2017-01-07T00:17:50.439Z,1038.8
2017-01-07T00:18:53.918Z,1038.8
2017-01-07T00:19:56.887Z,1038.9
2017-01-07T00:20:59.857Z,1038.9
2017-01-07T00:22:02.825Z,1038.8
2017-01-07T00:23:05.799Z,1038.9
2017-01-07T00:24:08.772Z,1038.8
2017-01-07T00:25:11.744Z,1038.8
2017-01-07T00:26:14.722Z,1038.8
2017-01-07T00:27:18.198Z,1038.7
2017-01-07T00:28:21.167Z,1038.7
2017-01-07T00:29:24.143Z,1038.7
2017-01-07T00:30:27.113Z,1038.7
2017-01-07T00:31:30.082Z,1038.7
2017-01-07T00:32:33.054Z,1038.6
2017-01-07T00:33:36.028Z,1038.6
2017-01-07T00:34:38.997Z,1038.6
2017-01-07T00:35:41.970Z,1038.5
2017-01-07T00:36:45.442Z,1038.5
2017-01-07T00:37:48.419Z,1038.5
2017-01-07T00:38:51.395Z,1038.6
2017-01-07T00:39:54.369Z,1038.5
2017-01-07T00:40:57.338Z,1038.5
2017-01-07T00:43:03.224Z,1038.5
2017-01-07T00:45:09.610Z,1038.5
2017-01-07T00:46:12.581Z,1038.5
2017-01-07T00:48:18.460Z,1038.5
2017-01-07T00:49:21.431Z,1038.4
2017-01-07T00:50:24.906Z,1038.4
2017-01-07T00:51:27.885Z,1038.4
2017-01-07T00:52:30.856Z,1038.4
2017-01-07T00:53:33.826Z,1038.4
2017-01-07T00:54:36.793Z,1038.3
2017-01-07T00:55:39.782Z,1038.3
2017-01-07T00:56:42.759Z,1038.3
2017-01-07T00:57:45.727Z,1038.4
2017-01-07T00:58:48.696Z,1038.4
2017-01-07T00:59:52.167Z,1038.3
2017-01-07T01:00:55.142Z,1038.2
2017-01-07T01:01:58.118Z,1038.3
2017-01-07T01:03:01.094Z,1038.3
2017-01-07T01:04:04.063Z,1038.3
2017-01-07T01:05:07.034Z,1038.3
2017-01-07T01:06:10.006Z,1038.3
2017-01-07T01:07:12.979Z,1038.3
2017-01-07T01:09:19.359Z,1038.2
2017-01-07T01:10:22.328Z,1038.3
2017-01-07T01:12:28.206Z,1038.2
2017-01-07T01:13:31.178Z,1038.2
2017-01-07T01:14:34.153Z,1038.2
2017-01-07T01:15:37.627Z,1038.3
2017-01-07T01:16:40.601Z,1038.2
2017-01-07T01:17:43.573Z,1038.2
2017-01-07T01:18:46.541Z,1038.1
2017-01-07T01:19:49.511Z,1038.1
2017-01-07T01:20:52.480Z,1038.1
2017-01-07T01:21:55.456Z,1038
2017-01-07T01:22:58.928Z,1038.1
2017-01-07T01:24:01.897Z,1038
2017-01-07T01:25:04.871Z,1038
2017-01-07T01:26:07.845Z,1038
2017-01-07T01:27:10.816Z,1038
2017-01-07T01:28:13.785Z,1038.1
2017-01-07T01:29:16.753Z,1038
2017-01-07T01:30:19.730Z,1038.1
2017-01-07T01:31:23.207Z,1038
2017-01-07T01:32:26.177Z,1038
2017-01-07T01:34:32.060Z,1038
2017-01-07T01:35:35.027Z,1038
2017-01-07T01:36:37.998Z,1038
2017-01-07T01:37:40.974Z,1037.9
2017-01-07T01:38:44.450Z,1037.9
2017-01-07T01:39:47.419Z,1037.9
2017-01-07T01:40:50.396Z,1037.9
2017-01-07T01:41:53.368Z,1037.9
2017-01-07T01:42:56.340Z,1037.8
2017-01-07T01:43:59.311Z,1037.8
2017-01-07T01:46:05.694Z,1037.9
2017-01-07T01:47:08.664Z,1037.9
2017-01-07T01:49:14.550Z,1037.9
2017-01-07T01:50:17.521Z,1037.9
2017-01-07T01:51:20.489Z,1037.9
2017-01-07T01:52:23.831Z,1037.9
2017-01-07T01:53:26.798Z,1038
2017-01-07T01:54:29.770Z,1037.9
2017-01-07T01:55:32.742Z,1037.9
2017-01-07T01:56:35.716Z,1037.9
2017-01-07T01:57:38.688Z,1037.9
2017-01-07T01:58:41.658Z,1038
2017-01-07T01:59:45.136Z,1038
2017-01-07T02:00:48.131Z,1038
2017-01-07T02:01:51.104Z,1037.9
2017-01-07T02:02:54.080Z,1037.9
2017-01-07T02:03:57.058Z,1037.9
2017-01-07T02:05:00.026Z,1037.8
2017-01-07T02:06:02.995Z,1037.7
2017-01-07T02:07:05.968Z,1037.6
2017-01-07T02:08:09.448Z,1037.6
2017-01-07T02:09:12.420Z,1037.6
2017-01-07T02:11:18.298Z,1037.6
2017-01-07T02:12:21.267Z,1037.7
2017-01-07T02:13:24.236Z,1037.6
2017-01-07T02:14:27.206Z,1037.7
2017-01-07T02:15:30.684Z,1037.6
2017-01-07T02:16:33.652Z,1037.7
2017-01-07T02:17:36.631Z,1037.6
2017-01-07T02:18:39.603Z,1037.7
2017-01-07T02:19:42.571Z,1037.7
2017-01-07T02:20:45.540Z,1037.7
2017-01-07T02:21:48.510Z,1037.7
2017-01-07T02:22:51.482Z,1037.6
2017-01-07T02:24:57.866Z,1037.7
2017-01-07T02:26:00.838Z,1037.6
2017-01-07T02:27:03.808Z,1037.7
2017-01-07T02:28:06.780Z,1037.7
2017-01-07T02:29:09.757Z,1037.7
2017-01-07T02:30:13.236Z,1037.6
2017-01-07T02:31:16.207Z,1037.6
2017-01-07T02:32:19.178Z,1037.6
2017-01-07T02:33:22.144Z,1037.7
2017-01-07T02:34:25.117Z,1037.6
2017-01-07T02:35:28.088Z,1037.6
2017-01-07T02:36:31.059Z,1037.6
2017-01-07T02:37:34.032Z,1037.6
2017-01-07T02:38:37.507Z,1037.6
2017-01-07T02:39:40.479Z,1037.5
2017-01-07T02:40:43.448Z,1037.6
2017-01-07T02:41:46.417Z,1037.5
2017-01-07T02:42:49.387Z,1037.5
2017-01-07T02:43:52.387Z,1037.4
2017-01-07T02:44:55.360Z,1037.4
2017-01-07T02:45:58.835Z,1037.4
2017-01-07T02:47:01.807Z,1037.5
2017-01-07T02:48:04.781Z,1037.5
2017-01-07T02:49:07.757Z,1037.5
2017-01-07T02:50:10.727Z,1037.5
2017-01-07T02:51:13.703Z,1037.5
2017-01-07T02:52:16.672Z,1037.5
2017-01-07T02:53:19.641Z,1037.4
2017-01-07T02:54:23.121Z,1037.4
2017-01-07T02:55:26.093Z,1037.4
2017-01-07T02:56:29.062Z,1037.4
2017-01-07T02:57:32.034Z,1037.3
2017-01-07T02:58:35.032Z,1037.3
2017-01-07T03:00:40.909Z,1037.3
2017-01-07T03:01:44.405Z,1037.3
2017-01-07T03:02:47.377Z,1037.3
2017-01-07T03:03:50.347Z,1037.3
2017-01-07T03:04:53.316Z,1037.3
2017-01-07T03:05:56.309Z,1037.3
2017-01-07T03:06:59.281Z,1037.3
2017-01-07T03:08:02.254Z,1037.3
2017-01-07T03:09:05.226Z,1037.3
2017-01-07T03:10:08.699Z,1037.4
2017-01-07T03:11:11.676Z,1037.3
2017-01-07T03:12:14.650Z,1037.3
2017-01-07T03:13:17.617Z,1037.3
2017-01-07T03:14:20.586Z,1037.2
2017-01-07T03:15:23.559Z,1037.2
2017-01-07T03:16:26.530Z,1037.3
2017-01-07T03:17:30.007Z,1037.3
2017-01-07T03:18:32.972Z,1037.3
2017-01-07T03:19:35.946Z,1037.3
2017-01-07T03:20:38.918Z,1037.2
2017-01-07T03:21:41.887Z,1037.2
2017-01-07T03:22:44.860Z,1037.2
2017-01-07T03:23:47.829Z,1037.3
2017-01-07T03:24:51.301Z,1037.3
2017-01-07T03:25:54.270Z,1037.3
2017-01-07T03:26:57.250Z,1037.3
2017-01-07T03:28:00.234Z,1037.3
2017-01-07T03:29:03.208Z,1037.3
2017-01-07T03:30:06.186Z,1037.3
2017-01-07T03:31:09.170Z,1037.2
2017-01-07T03:32:12.144Z,1037.2
2017-01-07T03:33:15.623Z,1037.2
2017-01-07T03:34:18.595Z,1037.2
2017-01-07T03:35:21.573Z,1037.1
2017-01-07T03:36:24.558Z,1037.2
2017-01-07T03:37:27.534Z,1037.2
2017-01-07T03:38:30.506Z,1037.2
2017-01-07T03:39:33.480Z,1037.2
2017-01-07T03:40:36.957Z,1037.2
2017-01-07T03:41:39.929Z,1037.2
2017-01-07T03:42:42.906Z,1037.1
2017-01-07T03:43:45.883Z,1037.1
2017-01-07T03:44:48.859Z,1037.1
2017-01-07T03:45:51.840Z,1037
2017-01-07T03:46:54.813Z,1037
2017-01-07T03:47:58.289Z,1037
2017-01-07T03:49:01.263Z,1037
2017-01-07T03:50:03.904Z,1037
2017-01-07T03:51:07.385Z,1037
2017-01-07T03:52:10.358Z,1037
2017-01-07T03:53:13.331Z,1036.9
2017-01-07T03:54:16.308Z,1036.9
2017-01-07T03:55:19.289Z,1036.9
2017-01-07T03:56:22.270Z,1036.9
2017-01-07T03:57:25.247Z,1036.8
2017-01-07T03:58:28.723Z,1036.8
2017-01-07T03:59:31.700Z,1036.7
2017-01-07T04:00:34.677Z,1036.7
2017-01-07T04:01:37.653Z,1036.7
2017-01-07T04:02:40.629Z,1036.7
2017-01-07T04:03:43.601Z,1036.7
2017-01-07T04:04:46.579Z,1036.7
2017-01-07T04:05:49.557Z,1036.6
2017-01-07T04:07:55.942Z,1036.7
2017-01-07T04:08:58.926Z,1036.6
2017-01-07T04:10:01.900Z,1036.6
2017-01-07T04:11:04.881Z,1036.6
2017-01-07T04:12:07.853Z,1036.6
2017-01-07T04:13:11.332Z,1036.6
2017-01-07T04:14:14.321Z,1036.5
2017-01-07T04:15:17.296Z,1036.6
2017-01-07T04:16:20.267Z,1036.5
2017-01-07T04:17:23.244Z,1036.5
2017-01-07T04:18:26.219Z,1036.5
2017-01-07T04:19:29.194Z,1036.6
2017-01-07T04:20:32.171Z,1036.6
2017-01-07T04:22:38.561Z,1036.5
2017-01-07T04:23:41.536Z,1036.5
2017-01-07T04:24:44.509Z,1036.5
2017-01-07T04:25:47.483Z,1036.5
2017-01-07T04:26:50.475Z,1036.6
2017-01-07T04:27:53.955Z,1036.5
2017-01-07T04:28:56.932Z,1036.5
2017-01-07T04:29:59.905Z,1036.5
2017-01-07T04:31:02.877Z,1036.5
2017-01-07T04:33:08.762Z,1036.5
2017-01-07T04:34:12.238Z,1036.4
2017-01-07T04:35:15.212Z,1036.4
2017-01-07T04:36:18.188Z,1036.4
2017-01-07T04:37:21.169Z,1036.4
2017-01-07T04:38:24.141Z,1036.4
2017-01-07T04:39:27.119Z,1036.3
2017-01-07T04:40:30.091Z,1036.3
2017-01-07T04:41:33.593Z,1036.3
2017-01-07T04:42:36.572Z,1036.3
2017-01-07T04:43:39.553Z,1036.3
2017-01-07T04:44:42.534Z,1036.3
2017-01-07T04:45:45.516Z,1036.3
2017-01-07T04:46:48.490Z,1036.2
2017-01-07T04:47:51.469Z,1036.3
2017-01-07T04:48:54.446Z,1036.3
2017-01-07T04:49:57.922Z,1036.3
2017-01-07T04:51:00.897Z,1036.3
2017-01-07T04:52:03.872Z,1036.2
2017-01-07T04:53:06.852Z,1036.2
2017-01-07T04:54:09.826Z,1036.2
2017-01-07T04:55:12.801Z,1036.2
2017-01-07T04:56:15.779Z,1036.2
2017-01-07T04:57:19.259Z,1036.2
2017-01-07T04:59:25.144Z,1036.1
2017-01-07T05:00:28.128Z,1036.1
2017-01-07T05:01:31.102Z,1036
2017-01-07T05:02:34.078Z,1036
2017-01-07T05:03:37.580Z,1036
2017-01-07T05:04:40.555Z,1036
2017-01-07T05:05:43.533Z,1035.9
2017-01-07T05:06:46.513Z,1035.9
2017-01-07T05:07:49.490Z,1035.9
2017-01-07T05:08:52.466Z,1035.8
2017-01-07T05:09:55.440Z,1035.7
2017-01-07T05:10:58.924Z,1035.7
2017-01-07T05:12:01.925Z,1035.7
2017-01-07T05:13:04.903Z,1035.7
2017-01-07T05:14:07.883Z,1035.7
2017-01-07T05:15:10.859Z,1035.6
2017-01-07T05:16:13.833Z,1035.6
2017-01-07T05:17:16.811Z,1035.6
2017-01-07T05:18:20.288Z,1035.6
2017-01-07T05:19:23.270Z,1035.6
2017-01-07T05:20:26.254Z,1035.7
2017-01-07T05:21:29.228Z,1035.7
2017-01-07T05:22:32.208Z,1035.6
2017-01-07T05:23:35.186Z,1035.6
2017-01-07T05:24:38.161Z,1035.6
2017-01-07T05:25:41.637Z,1035.6
2017-01-07T05:26:44.610Z,1035.6
2017-01-07T05:27:47.583Z,1035.5
2017-01-07T05:28:50.555Z,1035.5
2017-01-07T05:29:53.537Z,1035.4
2017-01-07T05:30:56.516Z,1035.5
2017-01-07T05:31:59.493Z,1035.5
2017-01-07T05:33:02.970Z,1035.4
2017-01-07T05:34:05.947Z,1035.5
2017-01-07T05:35:08.927Z,1035.4
2017-01-07T05:36:11.904Z,1035.4
2017-01-07T05:37:14.880Z,1035.4
2017-01-07T05:38:17.853Z,1035.4
2017-01-07T05:39:20.829Z,1035.5
2017-01-07T05:40:24.305Z,1035.4
2017-01-07T05:41:27.278Z,1035.4
2017-01-07T05:42:30.254Z,1035.5
2017-01-07T05:43:33.233Z,1035.6
2017-01-07T05:44:36.211Z,1035.6
2017-01-07T05:45:39.185Z,1035.5
2017-01-07T05:46:42.159Z,1035.5
2017-01-07T05:47:45.634Z,1035.5
2017-01-07T05:48:48.615Z,1035.4
2017-01-07T05:49:51.591Z,1035.4
2017-01-07T05:50:54.567Z,1035.3
2017-01-07T05:51:57.545Z,1035.3
2017-01-07T05:53:00.554Z,1035.3
2017-01-07T05:54:03.538Z,1035.3
2017-01-07T05:55:07.018Z,1035.2
2017-01-07T05:57:12.899Z,1035.1
2017-01-07T05:58:15.871Z,1035.1
2017-01-07T05:59:18.848Z,1035.2
2017-01-07T06:00:21.853Z,1035.3
2017-01-07T06:01:25.333Z,1035.3
2017-01-07T06:03:31.228Z,1035.3
2017-01-07T06:04:34.204Z,1035.3
2017-01-07T06:05:37.205Z,1035.3
2017-01-07T06:06:40.181Z,1035.3
2017-01-07T06:07:43.660Z,1035.3
2017-01-07T06:08:46.633Z,1035.3
2017-01-07T06:09:49.613Z,1035.2
2017-01-07T06:10:52.587Z,1035.1
2017-01-07T06:11:55.559Z,1035.1
2017-01-07T06:12:58.537Z,1035.1
2017-01-07T06:15:04.928Z,1035.1
2017-01-07T06:16:07.901Z,1035.1
2017-01-07T06:17:10.878Z,1035.1
2017-01-07T06:18:13.853Z,1035.1
2017-01-07T06:19:16.830Z,1035.1
2017-01-07T06:20:20.313Z,1035.1
2017-01-07T06:21:23.287Z,1035.1
2017-01-07T06:22:26.277Z,1035.1
2017-01-07T06:23:29.260Z,1035
2017-01-07T06:24:32.234Z,1035
2017-01-07T06:25:35.213Z,1035
2017-01-07T06:26:38.186Z,1035
2017-01-07T06:27:41.667Z,1035
2017-01-07T06:28:44.643Z,1035
2017-01-07T06:29:47.615Z,1035
2017-01-07T06:30:50.592Z,1035
2017-01-07T06:31:53.565Z,1035
2017-01-07T06:32:56.542Z,1034.9
2017-01-07T06:33:59.515Z,1034.9
2017-01-07T06:35:02.991Z,1034.9
2017-01-07T06:36:05.967Z,1034.9
2017-01-07T06:38:11.850Z,1034.8
2017-01-07T06:39:14.825Z,1034.9
2017-01-07T06:40:18.305Z,1034.8
2017-01-07T06:41:21.278Z,1034.8
2017-01-07T06:42:24.255Z,1034.8
2017-01-07T06:43:27.232Z,1034.8
2017-01-07T06:44:30.204Z,1034.8
2017-01-07T06:45:33.180Z,1034.9
2017-01-07T06:46:36.154Z,1034.9
2017-01-07T06:47:39.632Z,1034.9
2017-01-07T06:48:42.606Z,1034.9
2017-01-07T06:49:45.584Z,1034.9
2017-01-07T06:50:48.555Z,1034.8
2017-01-07T06:51:51.535Z,1034.9
2017-01-07T06:52:54.520Z,1034.9
2017-01-07T06:56:03.821Z,1035.1
2017-01-07T06:57:06.797Z,1035
2017-01-07T06:58:09.776Z,1035
2017-01-07T06:59:13.262Z,1035
2017-01-07T07:00:16.236Z,1034.9
2017-01-07T07:02:22.118Z,1034.9
2017-01-07T07:07:37.231Z,1034.9
2017-01-07T07:08:40.714Z,1034.9
2017-01-07T07:09:43.687Z,1034.8
2017-01-07T07:10:46.660Z,1034.8
2017-01-07T07:11:49.643Z,1034.8
2017-01-07T07:12:52.621Z,1034.8
2017-01-07T07:13:55.602Z,1034.7
2017-01-07T07:14:58.932Z,1034.7
2017-01-07T07:16:01.906Z,1034.7
2017-01-07T07:17:04.886Z,1034.7
2017-01-07T07:18:07.873Z,1034.7
2017-01-07T07:19:10.848Z,1034.7
2017-01-07T07:20:14.324Z,1034.7
2017-01-07T07:21:17.299Z,1034.7
2017-01-07T07:22:20.274Z,1034.6
2017-01-07T07:23:23.251Z,1034.6
2017-01-07T07:26:32.544Z,1034.5
2017-01-07T07:27:35.530Z,1034.5
2017-01-07T07:28:38.501Z,1034.5
2017-01-07T07:29:41.478Z,1034.5
2017-01-07T07:31:47.867Z,1034.5
2017-01-07T07:33:53.748Z,1034.5
2017-01-07T07:34:56.721Z,1034.5
2017-01-07T07:35:59.702Z,1034.5
2017-01-07T07:37:03.186Z,1034.4
2017-01-07T07:38:06.164Z,1034.4
2017-01-07T07:39:09.137Z,1034.4
2017-01-07T07:40:12.117Z,1034.4
2017-01-07T07:41:15.095Z,1034.4
2017-01-07T07:42:18.071Z,1034.4
2017-01-07T07:43:21.049Z,1034.4
2017-01-07T07:44:24.535Z,1034.2
2017-01-07T07:45:27.514Z,1034.4
2017-01-07T07:46:30.488Z,1034.4
2017-01-07T07:47:33.464Z,1034.4
2017-01-07T07:48:36.440Z,1034.4
2017-01-07T07:49:39.415Z,1034.2
2017-01-07T07:50:42.425Z,1034.2
2017-01-07T07:51:45.906Z,1034.4
2017-01-07T07:52:48.880Z,1034.4
2017-01-07T07:53:51.860Z,1034.2
2017-01-07T07:54:54.843Z,1034.2
2017-01-07T07:55:57.819Z,1034.2
2017-01-07T07:57:00.798Z,1034.2
2017-01-07T07:58:04.280Z,1034.2
2017-01-07T07:59:07.254Z,1034.2
2017-01-07T08:00:10.234Z,1034.2
2017-01-07T08:01:13.213Z,1034.2
2017-01-07T08:02:16.192Z,1034.2
2017-01-07T08:03:19.176Z,1034.2
2017-01-07T08:04:22.657Z,1034.2
2017-01-07T08:05:25.632Z,1034.2
2017-01-07T08:06:28.772Z,1034.1
2017-01-07T08:07:31.742Z,1034.1
2017-01-07T08:08:34.728Z,1034.1
2017-01-07T08:09:37.713Z,1034
2017-01-07T08:10:40.689Z,1034.1
2017-01-07T08:11:43.667Z,1034
2017-01-07T08:12:47.149Z,1034.1
2017-01-07T08:13:50.129Z,1034.1
2017-01-07T08:14:53.106Z,1034.1
2017-01-07T08:15:56.088Z,1034
2017-01-07T08:18:01.978Z,1033.9
2017-01-07T08:19:05.490Z,1034
2017-01-07T08:20:08.463Z,1034
2017-01-07T08:21:11.436Z,1034
2017-01-07T08:22:14.436Z,1034
2017-01-07T08:23:17.414Z,1034
2017-01-07T08:24:20.388Z,1034
2017-01-07T08:25:23.871Z,1034
2017-01-07T08:26:26.852Z,1033.9
2017-01-07T08:27:29.833Z,1034
2017-01-07T08:28:32.652Z,1033.9
2017-01-07T08:29:35.915Z,1033.9
2017-01-07T08:30:38.905Z,1033.9
2017-01-07T08:31:42.132Z,1033.9
2017-01-07T08:33:48.019Z,1033.9
2017-01-07T08:34:51.000Z,1033.9
2017-01-07T08:35:54.481Z,1033.9
2017-01-07T08:36:57.457Z,1034
2017-01-07T08:38:00.439Z,1033.9
2017-01-07T08:39:03.581Z,1033.9
2017-01-07T08:40:06.555Z,1033.9
2017-01-07T08:41:09.534Z,1033.9
2017-01-07T08:42:12.508Z,1033.9
2017-01-07T08:43:15.485Z,1033.8
2017-01-07T08:44:18.964Z,1033.9
2017-01-07T08:45:21.937Z,1033.9
2017-01-07T08:46:24.910Z,1033.9
2017-01-07T08:47:27.887Z,1033.9
2017-01-07T08:48:30.864Z,1033.9
2017-01-07T08:49:33.838Z,1033.9
2017-01-07T08:50:37.341Z,1033.9
2017-01-07T08:51:40.318Z,1033.8
2017-01-07T08:52:43.294Z,1033.9
2017-01-07T08:53:46.272Z,1033.8
2017-01-07T08:54:49.412Z,1033.8
2017-01-07T08:55:52.390Z,1033.8
2017-01-07T08:56:55.366Z,1033.8
2017-01-07T08:57:58.340Z,1033.7
2017-01-07T08:59:01.821Z,1033.7
2017-01-07T09:01:07.714Z,1033.7
2017-01-07T09:02:10.691Z,1033.7
2017-01-07T09:03:13.669Z,1033.7
2017-01-07T09:04:17.145Z,1033.6
2017-01-07T09:05:20.122Z,1033.6
2017-01-07T09:06:23.100Z,1033.6
2017-01-07T09:07:26.081Z,1033.6
2017-01-07T09:08:29.058Z,1033.6
2017-01-07T09:09:32.039Z,1033.6
2017-01-07T09:10:35.516Z,1033.6
2017-01-07T09:12:41.397Z,1033.6
2017-01-07T09:13:44.386Z,1033.7
2017-01-07T09:14:47.867Z,1033.6
2017-01-07T09:15:50.840Z,1033.7
2017-01-07T09:16:53.848Z,1033.6
2017-01-07T09:17:56.825Z,1033.7
2017-01-07T09:18:59.804Z,1033.7
2017-01-07T09:20:02.784Z,1033.6
2017-01-07T09:21:06.267Z,1033.7
2017-01-07T09:22:09.240Z,1033.6
2017-01-07T09:23:12.218Z,1033.7
2017-01-07T09:24:15.192Z,1033.6
2017-01-07T09:25:18.170Z,1033.6
2017-01-07T09:26:21.179Z,1033.6
2017-01-07T09:27:24.656Z,1033.6
2017-01-07T09:28:27.632Z,1033.5
2017-01-07T09:29:30.609Z,1033.5
2017-01-07T09:30:33.585Z,1033.5
2017-01-07T09:31:36.559Z,1033.5
2017-01-07T09:32:40.044Z,1033.4
2017-01-07T09:33:43.021Z,1033.4
2017-01-07T09:34:46.002Z,1033.5
2017-01-07T09:36:52.061Z,1033.4
2017-01-07T09:37:55.041Z,1033.4
2017-01-07T09:38:58.015Z,1033.3
2017-01-07T09:40:01.493Z,1033.4
2017-01-07T09:41:04.476Z,1033.4
2017-01-07T09:42:07.450Z,1033.3
2017-01-07T09:43:10.426Z,1033.3
2017-01-07T09:44:13.404Z,1033.3
2017-01-07T09:45:16.884Z,1033.3
2017-01-07T09:46:19.860Z,1033.3
2017-01-07T09:47:22.834Z,1033.3
2017-01-07T09:48:25.812Z,1033.3
2017-01-07T09:49:28.792Z,1033.2
2017-01-07T09:50:31.940Z,1033.2
2017-01-07T09:51:34.915Z,1033.2
2017-01-07T09:52:38.396Z,1033.1
2017-01-07T09:53:41.405Z,1033.2
2017-01-07T09:54:44.399Z,1033.2
2017-01-07T09:55:47.379Z,1033.2
2017-01-07T09:56:50.354Z,1033.2
2017-01-07T09:57:53.334Z,1033.2
2017-01-07T09:58:56.810Z,1033.1
2017-01-07T09:59:59.782Z,1033.1
2017-01-07T10:01:02.756Z,1033
2017-01-07T10:02:05.734Z,1033.1
2017-01-07T10:03:08.710Z,1033
2017-01-07T10:04:12.192Z,1032.9
2017-01-07T10:05:15.168Z,1032.9
2017-01-07T10:06:18.140Z,1032.9
2017-01-07T10:07:21.115Z,1032.8
2017-01-07T10:08:24.092Z,1032.9
2017-01-07T10:09:27.579Z,1032.9
2017-01-07T10:10:30.552Z,1032.9
2017-01-07T10:11:33.526Z,1032.8
2017-01-07T10:12:36.501Z,1032.8
2017-01-07T10:13:39.991Z,1032.8
2017-01-07T10:14:42.967Z,1032.7
2017-01-07T10:15:45.949Z,1032.7
2017-01-07T10:16:48.925Z,1032.7
2017-01-07T10:17:51.898Z,1032.6
2017-01-07T10:18:55.376Z,1032.6
2017-01-07T10:19:58.352Z,1032.6
2017-01-07T10:21:01.329Z,1032.6
2017-01-07T10:22:04.305Z,1032.6
2017-01-07T10:23:07.282Z,1032.6
2017-01-07T10:24:10.763Z,1032.6
2017-01-07T10:25:13.735Z,1032.6
2017-01-07T10:26:16.710Z,1032.5
2017-01-07T10:27:19.686Z,1032.5
2017-01-07T10:28:22.667Z,1032.6
2017-01-07T10:29:26.143Z,1032.6
2017-01-07T10:30:29.117Z,1032.5
2017-01-07T10:31:32.090Z,1032.5
2017-01-07T10:32:35.070Z,1032.5
2017-01-07T10:33:38.551Z,1032.5
2017-01-07T10:34:41.531Z,1032.5
2017-01-07T10:35:44.509Z,1032.5
2017-01-07T10:36:47.486Z,1032.4
2017-01-07T10:37:50.464Z,1032.4
2017-01-07T10:38:53.942Z,1032.5
2017-01-07T10:39:56.919Z,1032.5
2017-01-07T10:40:59.901Z,1032.5
2017-01-07T10:42:02.881Z,1032.5
2017-01-07T10:43:05.859Z,1032.5
2017-01-07T10:44:09.339Z,1032.5
2017-01-07T10:46:15.225Z,1032.4
2017-01-07T10:47:18.198Z,1032.4
2017-01-07T10:48:21.683Z,1032.4
2017-01-07T10:49:24.655Z,1032.4
2017-01-07T10:50:27.633Z,1032.4
2017-01-07T10:51:30.613Z,1032.4
2017-01-07T10:52:33.587Z,1032.3
2017-01-07T10:53:37.072Z,1032.3
2017-01-07T10:54:40.048Z,1032.3
2017-01-07T10:55:43.022Z,1032.2
2017-01-07T10:56:45.995Z,1032.2
2017-01-07T10:57:48.967Z,1032.2
2017-01-07T11:00:58.262Z,1032.2
2017-01-07T11:02:01.745Z,1032.2
2017-01-07T11:03:04.732Z,1032.2
2017-01-07T11:04:07.708Z,1032.2
2017-01-07T11:05:10.694Z,1032.1
2017-01-07T11:06:13.666Z,1032
2017-01-07T11:07:17.143Z,1032
2017-01-07T11:08:20.120Z,1031.9
2017-01-07T11:09:23.096Z,1031.9
2017-01-07T11:10:26.074Z,1031.9
2017-01-07T11:11:29.555Z,1031.9
2017-01-07T11:12:32.531Z,1031.9
2017-01-07T11:13:35.509Z,1031.8
2017-01-07T11:14:38.486Z,1031.9
2017-01-07T11:15:41.463Z,1031.9
2017-01-07T11:16:44.943Z,1031.8
2017-01-07T11:17:47.928Z,1031.9
2017-01-07T11:18:50.911Z,1031.9
2017-01-07T11:19:53.894Z,1031.8
2017-01-07T11:20:57.375Z,1031.8
2017-01-07T11:22:00.354Z,1031.8
2017-01-07T11:23:03.325Z,1031.7
2017-01-07T11:24:06.300Z,1031.7
2017-01-07T11:25:09.275Z,1031.6
2017-01-07T11:26:12.754Z,1031.6
2017-01-07T11:28:18.664Z,1031.5
2017-01-07T11:29:21.638Z,1031.4
2017-01-07T11:30:25.123Z,1031.4
2017-01-07T11:31:28.096Z,1031.3
2017-01-07T11:32:31.076Z,1031.3
2017-01-07T11:33:34.050Z,1031.3
2017-01-07T11:34:37.529Z,1031.3
2017-01-07T11:35:40.507Z,1031.3
2017-01-07T11:36:43.480Z,1031.3
2017-01-07T11:37:46.457Z,1031.3
2017-01-07T11:38:49.441Z,1031.3
2017-01-07T11:39:52.920Z,1031.3
2017-01-07T11:41:58.981Z,1031.1
2017-01-07T11:43:01.955Z,1031
2017-01-07T11:44:04.931Z,1031
2017-01-07T11:45:08.411Z,1030.9
2017-01-07T11:46:11.388Z,1030.9
2017-01-07T11:47:14.360Z,1030.9
2017-01-07T11:48:17.338Z,1030.9
2017-01-07T11:49:20.817Z,1030.9
2017-01-07T11:50:23.795Z,1030.9
2017-01-07T11:51:26.773Z,1030.9
2017-01-07T11:52:29.753Z,1030.9
2017-01-07T11:53:33.229Z,1030.9
2017-01-07T11:54:36.211Z,1030.9
2017-01-07T11:55:39.183Z,1030.9
2017-01-07T11:56:42.162Z,1030.9
2017-01-07T11:57:45.134Z,1030.9
2017-01-07T11:58:48.617Z,1030.9
2017-01-07T11:59:51.592Z,1030.9
2017-01-07T12:00:54.569Z,1030.8
2017-01-07T12:01:57.550Z,1030.9
2017-01-07T12:03:01.035Z,1030.8
2017-01-07T12:04:04.176Z,1030.9
2017-01-07T12:05:07.149Z,1030.8
2017-01-07T12:06:10.123Z,1030.8
2017-01-07T12:07:13.283Z,1030.8
2017-01-07T12:08:16.253Z,1030.8
2017-01-07T12:10:22.639Z,1030.7
2017-01-07T12:11:25.617Z,1030.7
2017-01-07T12:12:28.600Z,1030.7
2017-01-07T12:13:31.577Z,1030.6
2017-01-07T12:14:35.057Z,1030.6
2017-01-07T12:15:38.035Z,1030.6
2017-01-07T12:16:41.011Z,1030.6
2017-01-07T12:17:43.994Z,1030.6
2017-01-07T12:18:47.473Z,1030.5
2017-01-07T12:19:50.445Z,1030.5
2017-01-07T12:20:53.419Z,1030.4
2017-01-07T12:21:56.396Z,1030.4
2017-01-07T12:22:59.878Z,1030.4
2017-01-07T12:24:02.858Z,1030.4
2017-01-07T12:25:05.835Z,1030.4
2017-01-07T12:26:08.825Z,1030.4
2017-01-07T12:27:12.300Z,1030.3
2017-01-07T12:28:15.276Z,1030.3
2017-01-07T12:29:18.250Z,1030.3
2017-01-07T12:30:21.230Z,1030.3
2017-01-07T12:31:24.204Z,1030.3
2017-01-07T12:32:27.684Z,1030.2
2017-01-07T12:33:30.661Z,1030.2
2017-01-07T12:34:33.637Z,1030.2
2017-01-07T12:35:36.611Z,1030.1
2017-01-07T12:36:40.101Z,1030.1
2017-01-07T12:38:45.985Z,1030.1
2017-01-07T12:39:49.470Z,1030.1
2017-01-07T12:40:52.451Z,1030.1
2017-01-07T12:41:55.431Z,1030.1
2017-01-07T12:44:01.816Z,1030.1
2017-01-07T12:45:04.789Z,1030
2017-01-07T12:46:07.765Z,1030.1
2017-01-07T12:47:10.743Z,1030
2017-01-07T12:48:14.225Z,1030
2017-01-07T12:50:20.116Z,1030
2017-01-07T12:51:23.095Z,1030
2017-01-07T12:52:26.239Z,1030
2017-01-07T12:53:29.719Z,1030
2017-01-07T12:54:32.701Z,1030
2017-01-07T12:55:35.677Z,1029.9
2017-01-07T12:56:38.659Z,1030
2017-01-07T12:57:42.138Z,1030
2017-01-07T12:58:45.116Z,1029.9
2017-01-07T12:59:48.089Z,1030
2017-01-07T13:00:51.065Z,1030
2017-01-07T13:01:54.542Z,1030
2017-01-07T13:02:57.184Z,1030
2017-01-07T13:04:00.665Z,1030
2017-01-07T13:05:03.807Z,1030
2017-01-07T13:06:06.781Z,1030
2017-01-07T13:07:09.756Z,1030
2017-01-07T13:08:12.733Z,1029.9
2017-01-07T13:09:16.207Z,1030
2017-01-07T13:10:19.182Z,1029.9
2017-01-07T13:11:22.155Z,1029.9
2017-01-07T13:12:25.130Z,1029.9
2017-01-07T13:13:28.637Z,1029.8
2017-01-07T13:14:31.614Z,1029.8
2017-01-07T13:15:34.591Z,1029.7
2017-01-07T13:16:37.573Z,1029.7
2017-01-07T13:17:40.570Z,1029.7
2017-01-07T13:18:44.048Z,1029.7
2017-01-07T13:19:47.021Z,1029.7
2017-01-07T13:20:49.994Z,1029.7
2017-01-07T13:21:52.979Z,1029.6
2017-01-07T13:22:56.460Z,1029.6
2017-01-07T13:23:59.654Z,1029.6
2017-01-07T13:25:02.634Z,1029.6
2017-01-07T13:26:05.613Z,1029.5
2017-01-07T13:27:08.593Z,1029.6
2017-01-07T13:28:11.566Z,1029.6
2017-01-07T13:29:15.071Z,1029.6
2017-01-07T13:30:18.046Z,1029.6
2017-01-07T13:31:21.023Z,1029.5
2017-01-07T13:32:24.001Z,1029.5
2017-01-07T13:33:27.480Z,1029.5
2017-01-07T13:34:30.458Z,1029.4
2017-01-07T13:35:33.435Z,1029.4
2017-01-07T13:36:36.416Z,1029.4
2017-01-07T13:37:39.897Z,1029.4
2017-01-07T13:38:42.876Z,1029.4
2017-01-07T13:39:45.854Z,1029.4
2017-01-07T13:40:48.828Z,1029.4
2017-01-07T13:41:52.311Z,1029.4
2017-01-07T13:42:55.288Z,1029.4
2017-01-07T13:43:58.265Z,1029.4
2017-01-07T13:45:01.239Z,1029.4
2017-01-07T13:46:04.723Z,1029.4
2017-01-07T13:47:07.699Z,1029.3
2017-01-07T13:48:10.673Z,1029.3
2017-01-07T13:49:13.655Z,1029.3
2017-01-07T13:50:17.137Z,1029.2
2017-01-07T13:52:23.023Z,1029.2
2017-01-07T13:53:25.998Z,1029.2
2017-01-07T13:54:29.484Z,1029.1
2017-01-07T13:55:32.462Z,1029.1
2017-01-07T13:56:35.442Z,1029.1
2017-01-07T13:57:38.420Z,1029.1
2017-01-07T13:58:41.904Z,1029
2017-01-07T13:59:44.877Z,1029.1
2017-01-07T14:00:47.852Z,1029.1